sensor_id;sensor_type;location;lat;lon;timestamp;pressure;altitude;pressure_sealevel;temperature;humidity
30682;BME280;17439;48.092;11.842;2023-02-28T00:01:18;95878.09;;;-0.73;65.61
30682;BME280;17439;48.092;11.842;2023-02-28T00:03:44;95866.03;;;-0.76;65.64
30682;BME280;17439;48.092;11.842;2023-02-28T00:06:11;95868.13;;;-0.78;65.69
30682;BME280;17439;48.092;11.842;2023-02-28T00:08:38;95868.34;;;-0.79;65.84
30682;BME280;17439;48.092;11.842;2023-02-28T00:11:08;95866.16;;;-0.82;65.13
30682;BME280;17439;48.092;11.842;2023-02-28T00:13:37;95867.41;;;-0.85;65.44
30682;BME280;17439;48.092;11.842;2023-02-28T00:16:13;95861.50;;;-0.87;65.04
30682;BME280;17439;48.092;11.842;2023-02-28T00:18:41;95865.19;;;-0.88;65.51
30682;BME280;17439;48.092;11.842;2023-02-28T00:21:08;95870.19;;;-0.92;65.57
30682;BME280;17439;48.092;11.842;2023-02-28T00:23:35;95864.28;;;-0.94;65.76
30682;BME280;17439;48.092;11.842;2023-02-28T00:26:02;95861.84;;;-0.95;65.56
30682;BME280;17439;48.092;11.842;2023-02-28T00:28:29;95858.56;;;-0.97;65.53
30682;BME280;17439;48.092;11.842;2023-02-28T00:30:58;95856.97;;;-0.98;65.47
30682;BME280;17439;48.092;11.842;2023-02-28T00:33:25;95864.34;;;-1.00;65.42
30682;BME280;17439;48.092;11.842;2023-02-28T00:36:10;95855.22;;;-1.04;63.91
30682;BME280;17439;48.092;11.842;2023-02-28T00:38:38;95858.91;;;-1.05;65.19
30682;BME280;17439;48.092;11.842;2023-02-28T00:41:06;95854.03;;;-1.08;65.31
30682;BME280;17439;48.092;11.842;2023-02-28T00:43:34;95858.78;;;-1.11;65.29
30682;BME280;17439;48.092;11.842;2023-02-28T00:46:03;95851.25;;;-1.14;65.16
30682;BME280;17439;48.092;11.842;2023-02-28T00:48:30;95863.16;;;-1.16;65.17
30682;BME280;17439;48.092;11.842;2023-02-28T00:50:57;95857.25;;;-1.18;65.19
30682;BME280;17439;48.092;11.842;2023-02-28T00:53:24;95853.22;;;-1.21;65.22
30682;BME280;17439;48.092;11.842;2023-02-28T00:55:50;95852.81;;;-1.24;65.14
30682;BME280;17439;48.092;11.842;2023-02-28T00:58:17;95861.03;;;-1.26;65.00
30682;BME280;17439;48.092;11.842;2023-02-28T01:00:44;95857.00;;;-1.29;65.04
30682;BME280;17439;48.092;11.842;2023-02-28T01:03:10;95852.13;;;-1.32;64.92
30682;BME280;17439;48.092;11.842;2023-02-28T01:05:37;95850.72;;;-1.34;64.90
30682;BME280;17439;48.092;11.842;2023-02-28T01:08:04;95842.97;;;-1.36;64.88
30682;BME280;17439;48.092;11.842;2023-02-28T01:10:30;95838.91;;;-1.38;64.84
30682;BME280;17439;48.092;11.842;2023-02-28T01:12:57;95836.72;;;-1.41;64.78
30682;BME280;17439;48.092;11.842;2023-02-28T01:15:24;95843.28;;;-1.44;64.80
30682;BME280;17439;48.092;11.842;2023-02-28T01:17:50;95844.53;;;-1.47;64.81
30682;BME280;17439;48.092;11.842;2023-02-28T01:20:17;95843.94;;;-1.49;64.66
30682;BME280;17439;48.092;11.842;2023-02-28T01:22:43;95846.03;;;-1.51;64.53
30682;BME280;17439;48.092;11.842;2023-02-28T01:25:10;95838.50;;;-1.54;64.84
30682;BME280;17439;48.092;11.842;2023-02-28T01:27:37;95835.25;;;-1.56;64.86
30682;BME280;17439;48.092;11.842;2023-02-28T01:30:03;95839.97;;;-1.58;64.78
30682;BME280;17439;48.092;11.842;2023-02-28T01:32:30;95836.75;;;-1.60;64.90
30682;BME280;17439;48.092;11.842;2023-02-28T01:34:57;95832.44;;;-1.61;64.95
30682;BME280;17439;48.092;11.842;2023-02-28T01:37:23;95830.84;;;-1.62;65.11
30682;BME280;17439;48.092;11.842;2023-02-28T01:39:50;95822.25;;;-1.64;64.76
30682;BME280;17439;48.092;11.842;2023-02-28T01:42:19;95831.06;;;-1.63;64.94
30682;BME280;17439;48.092;11.842;2023-02-28T01:47:48;95808.84;;;-1.69;64.69
30682;BME280;17439;48.092;11.842;2023-02-28T01:50:23;95817.59;;;-1.69;64.26
30682;BME280;17439;48.092;11.842;2023-02-28T01:52:54;95812.53;;;-1.70;64.79
30682;BME280;17439;48.092;11.842;2023-02-28T01:55:23;95812.75;;;-1.72;64.74
30682;BME280;17439;48.092;11.842;2023-02-28T01:57:55;95815.66;;;-1.73;64.30
30682;BME280;17439;48.092;11.842;2023-02-28T02:00:26;95820.13;;;-1.74;64.69
30682;BME280;17439;48.092;11.842;2023-02-28T02:02:55;95817.69;;;-1.75;64.30
30682;BME280;17439;48.092;11.842;2023-02-28T02:05:25;95806.25;;;-1.76;64.84
30682;BME280;17439;48.092;11.842;2023-02-28T02:07:56;95804.84;;;-1.78;64.33
30682;BME280;17439;48.092;11.842;2023-02-28T02:10:33;95807.72;;;-1.80;63.82
30682;BME280;17439;48.092;11.842;2023-02-28T02:16:22;95814.56;;;-1.84;63.84
30682;BME280;17439;48.092;11.842;2023-02-28T02:19:14;95809.47;;;-1.86;63.72
30682;BME280;17439;48.092;11.842;2023-02-28T02:27:53;95815.44;;;-1.90;64.16
30682;BME280;17439;48.092;11.842;2023-02-28T02:39:13;95813.66;;;-1.96;64.58
30682;BME280;17439;48.092;11.842;2023-02-28T02:41:47;95805.13;;;-1.98;64.32
30682;BME280;17439;48.092;11.842;2023-02-28T02:46:51;95804.28;;;-1.99;64.24
30682;BME280;17439;48.092;11.842;2023-02-28T02:49:26;95806.34;;;-2.01;64.28
30682;BME280;17439;48.092;11.842;2023-02-28T02:51:56;95810.03;;;-2.02;64.48
30682;BME280;17439;48.092;11.842;2023-02-28T02:54:29;95811.91;;;-2.03;64.17
30682;BME280;17439;48.092;11.842;2023-02-28T02:57:03;95805.19;;;-2.05;63.85
30682;BME280;17439;48.092;11.842;2023-02-28T02:59:32;95805.19;;;-2.05;64.57
30682;BME280;17439;48.092;11.842;2023-02-28T03:02:02;95800.91;;;-2.06;64.12
30682;BME280;17439;48.092;11.842;2023-02-28T03:04:53;95803.22;;;-2.10;63.49
30682;BME280;17439;48.092;11.842;2023-02-28T03:07:22;95800.78;;;-2.11;64.39
30682;BME280;17439;48.092;11.842;2023-02-28T03:09:56;95799.94;;;-2.12;63.62
30682;BME280;17439;48.092;11.842;2023-02-28T03:12:32;95800.38;;;-2.15;63.75
30682;BME280;17439;48.092;11.842;2023-02-28T03:15:03;95798.78;;;-2.16;64.43
30682;BME280;17439;48.092;11.842;2023-02-28T03:17:44;95797.13;;;-2.17;64.25
30682;BME280;17439;48.092;11.842;2023-02-28T03:20:19;95798.38;;;-2.20;63.45
30682;BME280;17439;48.092;11.842;2023-02-28T03:28:02;95798.47;;;-2.26;63.64
30682;BME280;17439;48.092;11.842;2023-02-28T03:30:48;95797.06;;;-2.29;62.87
30682;BME280;17439;48.092;11.842;2023-02-28T03:33:21;95797.06;;;-2.29;63.74
30682;BME280;17439;48.092;11.842;2023-02-28T03:35:54;95803.41;;;-2.30;63.84
30682;BME280;17439;48.092;11.842;2023-02-28T03:38:28;95804.44;;;-2.31;63.65
30682;BME280;17439;48.092;11.842;2023-02-28T03:42:12;95798.53;;;-2.33;63.00
30682;BME280;17439;48.092;11.842;2023-02-28T03:44:24;95803.84;;;-2.33;63.81
30682;BME280;17439;48.092;11.842;2023-02-28T03:49:43;95805.09;;;-2.35;63.43
30682;BME280;17439;48.092;11.842;2023-02-28T03:52:11;95805.31;;;-2.37;64.43
30682;BME280;17439;48.092;11.842;2023-02-28T03:54:42;95807.16;;;-2.38;63.90
30682;BME280;17439;48.092;11.842;2023-02-28T04:00:20;95812.91;;;-2.41;63.29
30682;BME280;17439;48.092;11.842;2023-02-28T04:02:48;95819.66;;;-2.38;64.08
30682;BME280;17439;48.092;11.842;2023-02-28T04:05:14;95813.97;;;-2.42;64.03
30682;BME280;17439;48.092;11.842;2023-02-28T04:07:41;95821.09;;;-2.42;63.92
30682;BME280;17439;48.092;11.842;2023-02-28T04:10:08;95831.72;;;-2.42;64.18
30682;BME280;17439;48.092;11.842;2023-02-28T04:12:35;95828.50;;;-2.44;64.20
30682;BME280;17439;48.092;11.842;2023-02-28T04:15:02;95831.13;;;-2.44;64.42
30682;BME280;17439;48.092;11.842;2023-02-28T04:17:28;95828.69;;;-2.46;64.27
30682;BME280;17439;48.092;11.842;2023-02-28T04:19:55;95844.63;;;-2.46;64.33
30682;BME280;17439;48.092;11.842;2023-02-28T04:22:22;95834.00;;;-2.46;64.37
30682;BME280;17439;48.092;11.842;2023-02-28T04:24:49;95838.75;;;-2.48;64.20
30682;BME280;17439;48.092;11.842;2023-02-28T04:27:15;95838.75;;;-2.48;64.42
30682;BME280;17439;48.092;11.842;2023-02-28T04:29:42;95836.88;;;-2.47;64.44
30682;BME280;17439;48.092;11.842;2023-02-28T04:32:08;95835.25;;;-2.48;64.59
30682;BME280;17439;48.092;11.842;2023-02-28T04:34:35;95835.25;;;-2.48;64.68
30682;BME280;17439;48.092;11.842;2023-02-28T04:37:02;95833.44;;;-2.48;64.52
30682;BME280;17439;48.092;11.842;2023-02-28T04:39:39;95836.31;;;-2.49;64.48
30682;BME280;17439;48.092;11.842;2023-02-28T04:42:07;95832.59;;;-2.48;64.86
30682;BME280;17439;48.092;11.842;2023-02-28T04:44:34;95834.44;;;-2.49;64.67
30682;BME280;17439;48.092;11.842;2023-02-28T04:47:00;95836.31;;;-2.49;64.98
30682;BME280;17439;48.092;11.842;2023-02-28T04:49:27;95835.88;;;-2.46;65.01
30682;BME280;17439;48.092;11.842;2023-02-28T04:51:54;95832.16;;;-2.45;64.81
30682;BME280;17439;48.092;11.842;2023-02-28T04:54:20;95835.88;;;-2.46;64.77
30682;BME280;17439;48.092;11.842;2023-02-28T04:56:47;95837.47;;;-2.45;64.89
30682;BME280;17439;48.092;11.842;2023-02-28T04:59:14;95840.97;;;-2.45;65.07
30682;BME280;17439;48.092;11.842;2023-02-28T05:01:40;95841.53;;;-2.43;65.22
30682;BME280;17439;48.092;11.842;2023-02-28T05:04:13;95847.44;;;-2.41;65.45
30682;BME280;17439;48.092;11.842;2023-02-28T05:06:39;95841.09;;;-2.40;65.70
30682;BME280;17439;48.092;11.842;2023-02-28T05:09:06;95847.59;;;-2.35;65.98
30682;BME280;17439;48.092;11.842;2023-02-28T05:11:34;95847.97;;;-2.32;66.05
30682;BME280;17439;48.092;11.842;2023-02-28T05:14:02;95854.47;;;-2.28;66.46
30682;BME280;17439;48.092;11.842;2023-02-28T05:16:29;95857.50;;;-2.24;66.43
30682;BME280;17439;48.092;11.842;2023-02-28T05:18:56;95857.66;;;-2.19;66.72
30682;BME280;17439;48.092;11.842;2023-02-28T05:21:30;95855.16;;;-2.14;65.55
30682;BME280;17439;48.092;11.842;2023-02-28T05:23:59;95863.88;;;-2.07;67.12
30682;BME280;17439;48.092;11.842;2023-02-28T05:26:26;95862.16;;;-2.01;67.52
30682;BME280;17439;48.092;11.842;2023-02-28T05:28:53;95857.81;;;-1.95;67.64
30682;BME280;17439;48.092;11.842;2023-02-28T05:31:20;95859.38;;;-1.88;67.79
30682;BME280;17439;48.092;11.842;2023-02-28T05:33:46;95864.38;;;-1.79;68.06
30682;BME280;17439;48.092;11.842;2023-02-28T05:36:13;95863.50;;;-1.73;67.94
30682;BME280;17439;48.092;11.842;2023-02-28T05:38:40;95862.59;;;-1.67;67.95
30682;BME280;17439;48.092;11.842;2023-02-28T05:41:08;95851.66;;;-1.59;68.12
30682;BME280;17439;48.092;11.842;2023-02-28T05:43:35;95867.19;;;-1.56;67.39
30682;BME280;17439;48.092;11.842;2023-02-28T05:46:03;95859.47;;;-1.46;68.25
30682;BME280;17439;48.092;11.842;2023-02-28T05:48:29;95859.00;;;-1.42;67.49
30682;BME280;17439;48.092;11.842;2023-02-28T05:50:57;95860.56;;;-1.35;68.22
30682;BME280;17439;48.092;11.842;2023-02-28T05:53:24;95863.91;;;-1.28;68.58
30682;BME280;17439;48.092;11.842;2023-02-28T05:55:50;95864.31;;;-1.24;68.89
30682;BME280;17439;48.092;11.842;2023-02-28T05:58:17;95874.84;;;-1.17;68.99
30682;BME280;17439;48.092;11.842;2023-02-28T06:00:44;95871.06;;;-1.10;69.24
30682;BME280;17439;48.092;11.842;2023-02-28T06:03:10;95875.47;;;-1.03;69.10
30682;BME280;17439;48.092;11.842;2023-02-28T06:05:37;95875.38;;;-0.97;69.16
30682;BME280;17439;48.092;11.842;2023-02-28T06:08:04;95876.53;;;-0.93;69.31
30682;BME280;17439;48.092;11.842;2023-02-28T06:10:31;95875.84;;;-0.88;69.35
30682;BME280;17439;48.092;11.842;2023-02-28T06:13:01;95878.63;;;-0.83;69.38
30682;BME280;17439;48.092;11.842;2023-02-28T06:15:28;95878.31;;;-0.75;69.34
30682;BME280;17439;48.092;11.842;2023-02-28T06:17:55;95878.91;;;-0.73;69.25
30682;BME280;17439;48.092;11.842;2023-02-28T06:20:22;95881.44;;;-0.66;68.97
30682;BME280;17439;48.092;11.842;2023-02-28T06:22:49;95880.19;;;-0.63;69.07
30682;BME280;17439;48.092;11.842;2023-02-28T06:25:16;95889.94;;;-0.57;68.76
30682;BME280;17439;48.092;11.842;2023-02-28T06:27:43;95893.19;;;-0.55;68.91
30682;BME280;17439;48.092;11.842;2023-02-28T06:30:11;95889.47;;;-0.54;69.30
30682;BME280;17439;48.092;11.842;2023-02-28T06:32:38;95900.25;;;-0.49;69.56
30682;BME280;17439;48.092;11.842;2023-02-28T06:35:05;95899.56;;;-0.44;69.60
30682;BME280;17439;48.092;11.842;2023-02-28T06:37:32;95903.97;;;-0.38;69.71
30682;BME280;17439;48.092;11.842;2023-02-28T06:39:58;95902.34;;;-0.27;68.20
30682;BME280;17439;48.092;11.842;2023-02-28T06:42:25;95902.34;;;-0.27;68.54
30682;BME280;17439;48.092;11.842;2023-02-28T06:44:52;95906.75;;;-0.21;68.54
30682;BME280;17439;48.092;11.842;2023-02-28T06:47:18;95912.69;;;-0.19;68.73
30682;BME280;17439;48.092;11.842;2023-02-28T06:49:45;95903.63;;;-0.18;68.99
30682;BME280;17439;48.092;11.842;2023-02-28T06:52:11;95921.59;;;-0.13;69.25
30682;BME280;17439;48.092;11.842;2023-02-28T06:54:38;95906.78;;;-0.09;69.56
30682;BME280;17439;48.092;11.842;2023-02-28T06:57:04;95923.09;;;-0.06;69.87
30682;BME280;17439;48.092;11.842;2023-02-28T06:59:31;95916.50;;;-0.03;69.81
30682;BME280;17439;48.092;11.842;2023-02-28T07:01:57;95916.38;;;0.04;70.20
30682;BME280;17439;48.092;11.842;2023-02-28T07:04:24;95924.50;;;0.09;70.07
30682;BME280;17439;48.092;11.842;2023-02-28T07:06:51;95921.13;;;0.13;70.17
30682;BME280;17439;48.092;11.842;2023-02-28T07:09:17;95916.94;;;0.17;69.66
30682;BME280;17439;48.092;11.842;2023-02-28T07:11:44;95918.91;;;0.22;69.96
30682;BME280;17439;48.092;11.842;2023-02-28T07:14:10;95923.44;;;0.33;69.12
30682;BME280;17439;48.092;11.842;2023-02-28T07:16:37;95925.97;;;0.40;68.05
30682;BME280;17439;48.092;11.842;2023-02-28T07:19:04;95922.47;;;0.40;68.38
30682;BME280;17439;48.092;11.842;2023-02-28T07:21:30;95927.81;;;0.40;68.25
30682;BME280;17439;48.092;11.842;2023-02-28T07:23:57;95916.09;;;0.41;68.61
30682;BME280;17439;48.092;11.842;2023-02-28T07:26:24;95927.47;;;0.48;68.53
30682;BME280;17439;48.092;11.842;2023-02-28T07:28:50;95931.97;;;0.47;68.48
30682;BME280;17439;48.092;11.842;2023-02-28T07:31:17;95929.53;;;0.46;68.06
30682;BME280;17439;48.092;11.842;2023-02-28T07:33:44;95929.06;;;0.49;68.74
30682;BME280;17439;48.092;11.842;2023-02-28T07:36:13;95932.44;;;0.56;68.67
30682;BME280;17439;48.092;11.842;2023-02-28T07:38:41;95927.09;;;0.56;68.46
30682;BME280;17439;48.092;11.842;2023-02-28T07:41:08;95919.94;;;0.45;60.86
30682;BME280;17439;48.092;11.842;2023-02-28T07:43:35;95926.50;;;0.54;67.13
30682;BME280;17439;48.092;11.842;2023-02-28T07:46:10;95925.56;;;0.60;68.16
30682;BME280;17439;48.092;11.842;2023-02-28T07:48:37;95921.41;;;0.64;68.64
30682;BME280;17439;48.092;11.842;2023-02-28T07:51:04;95924.63;;;0.66;68.36
30682;BME280;17439;48.092;11.842;2023-02-28T07:53:30;95921.50;;;0.69;68.38
30682;BME280;17439;48.092;11.842;2023-02-28T07:55:58;95924.59;;;0.78;68.12
30682;BME280;17439;48.092;11.842;2023-02-28T07:58:25;95923.31;;;0.81;68.26
30682;BME280;17439;48.092;11.842;2023-02-28T08:00:52;95923.31;;;0.81;68.01
30682;BME280;17439;48.092;11.842;2023-02-28T08:03:20;95930.03;;;0.83;67.88
30682;BME280;17439;48.092;11.842;2023-02-28T08:05:47;95925.84;;;0.87;67.88
30682;BME280;17439;48.092;11.842;2023-02-28T08:08:15;95931.53;;;0.91;68.03
30682;BME280;17439;48.092;11.842;2023-02-28T08:10:42;95935.56;;;0.94;68.18
30682;BME280;17439;48.092;11.842;2023-02-28T08:13:09;95938.22;;;0.94;68.00
30682;BME280;17439;48.092;11.842;2023-02-28T08:15:36;95935.69;;;0.99;68.45
30682;BME280;17439;48.092;11.842;2023-02-28T08:18:03;95934.38;;;1.01;68.56
30682;BME280;17439;48.092;11.842;2023-02-28T08:20:29;95939.00;;;1.06;68.60
30682;BME280;17439;48.092;11.842;2023-02-28T08:22:56;95950.50;;;1.06;67.65
30682;BME280;17439;48.092;11.842;2023-02-28T08:25:23;95943.63;;;1.11;68.42
30682;BME280;17439;48.092;11.842;2023-02-28T08:27:51;95946.88;;;1.13;68.03
30682;BME280;17439;48.092;11.842;2023-02-28T08:30:18;95940.34;;;1.20;68.75
30682;BME280;17439;48.092;11.842;2023-02-28T08:32:45;95946.00;;;1.24;68.85
30682;BME280;17439;48.092;11.842;2023-02-28T08:35:12;95941.81;;;1.28;68.94
30682;BME280;17439;48.092;11.842;2023-02-28T08:37:38;95948.88;;;1.34;68.88
30682;BME280;17439;48.092;11.842;2023-02-28T08:40:06;95952.44;;;1.40;67.68
30682;BME280;17439;48.092;11.842;2023-02-28T08:42:32;95955.53;;;1.49;66.55
30682;BME280;17439;48.092;11.842;2023-02-28T08:44:59;95956.94;;;1.51;66.07
30682;BME280;17439;48.092;11.842;2023-02-28T08:47:26;95958.06;;;1.55;65.35
30682;BME280;17439;48.092;11.842;2023-02-28T08:49:52;95962.59;;;1.55;65.95
30682;BME280;17439;48.092;11.842;2023-02-28T08:52:19;95962.59;;;1.55;66.09
30682;BME280;17439;48.092;11.842;2023-02-28T08:54:45;95970.06;;;1.53;65.79
30682;BME280;17439;48.092;11.842;2023-02-28T08:57:12;95962.03;;;1.53;66.18
30682;BME280;17439;48.092;11.842;2023-02-28T08:59:38;95968.19;;;1.53;66.13
30682;BME280;17439;48.092;11.842;2023-02-28T09:02:05;95971.19;;;1.57;66.83
30682;BME280;17439;48.092;11.842;2023-02-28T09:04:33;95961.41;;;1.62;67.17
30682;BME280;17439;48.092;11.842;2023-02-28T09:07:00;95964.63;;;1.65;67.45
30682;BME280;17439;48.092;11.842;2023-02-28T09:09:26;95967.38;;;1.70;67.49
30682;BME280;17439;48.092;11.842;2023-02-28T09:11:55;95973.28;;;1.72;66.12
30682;BME280;17439;48.092;11.842;2023-02-28T09:14:22;95972.34;;;1.78;67.67
30682;BME280;17439;48.092;11.842;2023-02-28T09:16:49;95965.22;;;1.84;67.79
30682;BME280;17439;48.092;11.842;2023-02-28T09:19:15;95979.16;;;1.86;67.57
30682;BME280;17439;48.092;11.842;2023-02-28T09:21:42;95979.81;;;1.93;67.97
30682;BME280;17439;48.092;11.842;2023-02-28T09:24:09;95982.25;;;1.94;66.93
30682;BME280;17439;48.092;11.842;2023-02-28T09:26:37;95981.16;;;1.95;66.14
30682;BME280;17439;48.092;11.842;2023-02-28T09:29:16;95981.53;;;1.99;67.38
30682;BME280;17439;48.092;11.842;2023-02-28T09:31:43;95987.44;;;2.01;67.21
30682;BME280;17439;48.092;11.842;2023-02-28T09:34:09;95990.41;;;2.05;67.25
30682;BME280;17439;48.092;11.842;2023-02-28T09:36:36;95990.97;;;2.07;67.65
30682;BME280;17439;48.092;11.842;2023-02-28T09:39:11;95999.34;;;2.10;68.19
30682;BME280;17439;48.092;11.842;2023-02-28T09:41:41;96001.44;;;2.08;63.62
30682;BME280;17439;48.092;11.842;2023-02-28T09:44:13;96007.94;;;2.12;64.79
30682;BME280;17439;48.092;11.842;2023-02-28T09:46:48;96007.44;;;2.15;66.88
30682;BME280;17439;48.092;11.842;2023-02-28T09:49:20;96016.63;;;2.20;66.50
30682;BME280;17439;48.092;11.842;2023-02-28T09:51:58;96006.72;;;2.20;62.67
30682;BME280;17439;48.092;11.842;2023-02-28T09:54:29;96013.53;;;2.28;67.84
30682;BME280;17439;48.092;11.842;2023-02-28T09:57:01;96017.25;;;2.27;65.94
30682;BME280;17439;48.092;11.842;2023-02-28T10:07:59;96017.13;;;2.56;67.37
30682;BME280;17439;48.092;11.842;2023-02-28T10:10:44;96018.78;;;2.57;64.23
30682;BME280;17439;48.092;11.842;2023-02-28T10:13:26;96022.91;;;2.64;66.33
30682;BME280;17439;48.092;11.842;2023-02-28T10:15:58;96019.47;;;2.69;61.39
30682;BME280;17439;48.092;11.842;2023-02-28T10:18:38;96018.91;;;2.67;61.90
30682;BME280;17439;48.092;11.842;2023-02-28T10:21:16;96023.16;;;2.63;61.82
30682;BME280;17439;48.092;11.842;2023-02-28T10:23:45;96020.47;;;2.63;65.88
30682;BME280;17439;48.092;11.842;2023-02-28T10:26:14;96017.44;;;2.59;65.77
30682;BME280;17439;48.092;11.842;2023-02-28T10:28:41;96028.66;;;2.56;65.21
30682;BME280;17439;48.092;11.842;2023-02-28T10:31:12;96028.41;;;2.58;63.59
30682;BME280;17439;48.092;11.842;2023-02-28T10:33:41;96021.13;;;2.53;65.04
30682;BME280;17439;48.092;11.842;2023-02-28T10:36:13;96037.94;;;2.48;63.80
30682;BME280;17439;48.092;11.842;2023-02-28T10:38:40;96022.84;;;2.42;65.35
30682;BME280;17439;48.092;11.842;2023-02-28T10:41:13;96024.94;;;2.40;64.29
30682;BME280;17439;48.092;11.842;2023-02-28T10:43:42;96028.69;;;2.39;65.92
30682;BME280;17439;48.092;11.842;2023-02-28T10:48:38;96023.16;;;2.46;66.49
30682;BME280;17439;48.092;11.842;2023-02-28T10:51:10;96024.06;;;2.51;63.20
30682;BME280;17439;48.092;11.842;2023-02-28T10:56:27;96028.06;;;2.71;66.12
30682;BME280;17439;48.092;11.842;2023-02-28T10:58:58;96033.56;;;2.81;66.32
30682;BME280;17439;48.092;11.842;2023-02-28T11:03:58;96036.50;;;3.02;66.50
30682;BME280;17439;48.092;11.842;2023-02-28T11:06:33;96027.97;;;3.05;60.60
30682;BME280;17439;48.092;11.842;2023-02-28T11:09:20;96037.75;;;3.16;64.78
30682;BME280;17439;48.092;11.842;2023-02-28T11:11:48;96040.81;;;3.25;65.03
30682;BME280;17439;48.092;11.842;2023-02-28T11:14:25;96028.28;;;3.31;64.07
30682;BME280;17439;48.092;11.842;2023-02-28T11:16:53;96018.44;;;3.36;64.35
30682;BME280;17439;48.092;11.842;2023-02-28T11:19:22;96027.78;;;3.34;60.87
30682;BME280;17439;48.092;11.842;2023-02-28T11:21:59;96017.25;;;3.49;65.06
30682;BME280;17439;48.092;11.842;2023-02-28T11:24:33;96026.41;;;3.53;63.25
30682;BME280;17439;48.092;11.842;2023-02-28T11:27:01;96020.53;;;3.56;64.93
30682;BME280;17439;48.092;11.842;2023-02-28T11:29:32;96019.50;;;3.62;63.95
30682;BME280;17439;48.092;11.842;2023-02-28T11:32:19;96020.88;;;3.65;61.77
30682;BME280;17439;48.092;11.842;2023-02-28T11:34:59;96007.47;;;3.65;62.69
30682;BME280;17439;48.092;11.842;2023-02-28T11:37:27;96011.78;;;3.66;62.06
30682;BME280;17439;48.092;11.842;2023-02-28T11:39:55;96011.53;;;3.68;62.85
30682;BME280;17439;48.092;11.842;2023-02-28T11:42:31;96015.31;;;3.72;62.06
30682;BME280;17439;48.092;11.842;2023-02-28T11:47:38;96008.44;;;3.81;61.30
30682;BME280;17439;48.092;11.842;2023-02-28T11:55:56;95995.22;;;4.02;62.02
30682;BME280;17439;48.092;11.842;2023-02-28T11:58:38;95991.50;;;4.08;60.54
30682;BME280;17439;48.092;11.842;2023-02-28T12:03:50;95989.75;;;4.24;59.85
30682;BME280;17439;48.092;11.842;2023-02-28T12:06:43;95989.78;;;4.29;62.49
30682;BME280;17439;48.092;11.842;2023-02-28T12:09:38;95981.81;;;4.39;64.28
30682;BME280;17439;48.092;11.842;2023-02-28T12:12:32;95990.69;;;4.45;60.36
30682;BME280;17439;48.092;11.842;2023-02-28T12:20:42;95980.75;;;4.45;54.97
30682;BME280;17439;48.092;11.842;2023-02-28T12:23:21;95982.16;;;4.53;59.44
30682;BME280;17439;48.092;11.842;2023-02-28T12:26:22;95983.81;;;4.59;59.52
30682;BME280;17439;48.092;11.842;2023-02-28T12:28:59;95977.44;;;4.70;56.83
30682;BME280;17439;48.092;11.842;2023-02-28T12:31:38;95982.00;;;4.70;58.82
30682;BME280;17439;48.092;11.842;2023-02-28T12:34:10;95979.56;;;4.68;61.28
30682;BME280;17439;48.092;11.842;2023-02-28T12:36:41;95968.81;;;4.68;60.78
30682;BME280;17439;48.092;11.842;2023-02-28T12:39:36;95970.38;;;4.59;56.26
30682;BME280;17439;48.092;11.842;2023-02-28T12:44:54;95964.22;;;4.59;57.82
30682;BME280;17439;48.092;11.842;2023-02-28T12:47:23;95970.97;;;4.66;62.97
30682;BME280;17439;48.092;11.842;2023-02-28T12:49:58;95968.31;;;4.71;60.98
30682;BME280;17439;48.092;11.842;2023-02-28T12:52:54;95962.94;;;4.71;57.73
30682;BME280;17439;48.092;11.842;2023-02-28T12:58:34;95961.63;;;4.79;55.27
30682;BME280;17439;48.092;11.842;2023-02-28T13:07:04;95966.84;;;5.01;60.49
30682;BME280;17439;48.092;11.842;2023-02-28T13:09:34;95964.44;;;5.10;58.27
30682;BME280;17439;48.092;11.842;2023-02-28T13:12:12;95966.88;;;5.12;57.53
30682;BME280;17439;48.092;11.842;2023-02-28T13:14:40;95964.19;;;5.12;58.20
30682;BME280;17439;48.092;11.842;2023-02-28T13:19:38;95959.31;;;5.03;59.78
30682;BME280;17439;48.092;11.842;2023-02-28T13:22:05;95965.22;;;5.00;61.07
30682;BME280;17439;48.092;11.842;2023-02-28T13:24:46;95960.09;;;4.94;60.48
30682;BME280;17439;48.092;11.842;2023-02-28T13:29:41;95964.69;;;4.98;60.35
30682;BME280;17439;48.092;11.842;2023-02-28T13:34:37;95959.81;;;4.90;60.14
30682;BME280;17439;48.092;11.842;2023-02-28T13:47:51;95963.03;;;4.92;61.69
30682;BME280;17439;48.092;11.842;2023-02-28T14:01:16;95963.31;;;4.96;60.47
30682;BME280;17439;48.092;11.842;2023-02-28T14:06:30;95960.34;;;4.87;57.19
30682;BME280;17439;48.092;11.842;2023-02-28T14:11:40;95958.47;;;4.98;59.15
30682;BME280;17439;48.092;11.842;2023-02-28T14:14:09;95962.25;;;4.92;60.22
30682;BME280;17439;48.092;11.842;2023-02-28T14:16:39;95968.66;;;4.90;58.59
30682;BME280;17439;48.092;11.842;2023-02-28T14:19:33;95968.34;;;4.82;55.46
30682;BME280;17439;48.092;11.842;2023-02-28T14:22:32;95955.44;;;4.79;55.81
30682;BME280;17439;48.092;11.842;2023-02-28T14:25:30;95960.84;;;4.84;63.18
30682;BME280;17439;48.092;11.842;2023-02-28T14:31:13;95949.28;;;4.83;60.54
30682;BME280;17439;48.092;11.842;2023-02-28T14:36:36;95954.91;;;4.77;61.03
30682;BME280;17439;48.092;11.842;2023-02-28T14:39:11;95951.66;;;4.69;57.55
30682;BME280;17439;48.092;11.842;2023-02-28T14:41:41;95955.41;;;4.68;63.18
30682;BME280;17439;48.092;11.842;2023-02-28T14:44:22;95955.63;;;4.62;54.89
30682;BME280;17439;48.092;11.842;2023-02-28T14:46:52;95951.59;;;4.59;60.93
30682;BME280;17439;48.092;11.842;2023-02-28T14:49:24;95954.78;;;4.56;60.67
30682;BME280;17439;48.092;11.842;2023-02-28T14:52:21;95954.25;;;4.54;60.36
30682;BME280;17439;48.092;11.842;2023-02-28T14:54:57;95952.06;;;4.51;57.53
30682;BME280;17439;48.092;11.842;2023-02-28T14:57:30;95959.88;;;4.52;63.86
30682;BME280;17439;48.092;11.842;2023-02-28T15:00:24;95949.66;;;4.49;61.79
30682;BME280;17439;48.092;11.842;2023-02-28T15:02:51;95949.91;;;4.48;64.71
30682;BME280;17439;48.092;11.842;2023-02-28T15:05:29;95959.53;;;4.44;60.92
30682;BME280;17439;48.092;11.842;2023-02-28T15:10:30;95954.97;;;4.39;64.97
30682;BME280;17439;48.092;11.842;2023-02-28T15:13:05;95959.50;;;4.39;63.22
30682;BME280;17439;48.092;11.842;2023-02-28T15:18:33;95960.84;;;4.36;62.95